createdAt,value
2023-02-19T00:01:12.597Z,97506.81
2023-02-19T00:03:39.551Z,97507.78
2023-02-19T00:06:08.036Z,97501.28
2023-02-19T00:08:35.495Z,97490.44
2023-02-19T00:11:08.710Z,97496.88
2023-02-19T00:13:37.455Z,97489.78
2023-02-19T00:16:08.801Z,97505.81
2023-02-19T00:18:35.711Z,97482.81
2023-02-19T00:21:02.544Z,97507.22
2023-02-19T00:23:29.272Z,97517.88
2023-02-19T00:26:00.988Z,97528.50
2023-02-19T00:28:29.752Z,97510.19
2023-02-19T00:30:56.269Z,97521.09
2023-02-19T00:33:22.668Z,97528.09
2023-02-19T00:35:49.006Z,97522.38
2023-02-19T00:38:15.433Z,97493.56
2023-02-19T00:40:41.785Z,97497.00
2023-02-19T00:43:08.136Z,97492.38
2023-02-19T00:45:35.631Z,97489.16
2023-02-19T00:48:02.003Z,97479.03
2023-02-19T00:50:28.336Z,97495.53
2023-02-19T00:52:54.734Z,97506.13
2023-02-19T00:55:21.064Z,97475.03
2023-02-19T00:57:47.433Z,97481.94
2023-02-19T01:00:13.958Z,97493.31
2023-02-19T01:02:40.311Z,97480.06
2023-02-19T01:05:06.782Z,97492.69
2023-02-19T01:07:36.050Z,97490.16
2023-02-19T01:10:02.632Z,97476.59
2023-02-19T01:12:29.139Z,97481.88
2023-02-19T01:14:55.522Z,97488.13
2023-02-19T01:17:21.887Z,97472.03
2023-02-19T01:19:48.275Z,97475.72
2023-02-19T01:22:14.780Z,97479.84
2023-02-19T01:24:41.229Z,97478.66
2023-02-19T01:27:07.662Z,97477.84
2023-02-19T01:29:34.021Z,97482.09
2023-02-19T01:32:00.487Z,97485.63
2023-02-19T01:34:30.064Z,97457.13
2023-02-19T01:36:56.409Z,97462.47
2023-02-19T01:39:22.810Z,97454.44
2023-02-19T01:41:49.155Z,97463.97
2023-02-19T01:44:15.430Z,97455.34
2023-02-19T01:46:43.300Z,97442.13
2023-02-19T01:49:20.513Z,97433.28
2023-02-19T01:51:57.736Z,97424.47
2023-02-19T01:54:28.337Z,97424.00
2023-02-19T01:56:55.882Z,97421.69
2023-02-19T01:59:22.406Z,97433.84
2023-02-19T02:01:49.509Z,97422.53
2023-02-19T02:04:17.394Z,97425.53
2023-02-19T02:06:49.693Z,97430.78
2023-02-19T02:09:35.789Z,97419.59
2023-02-19T02:12:02.120Z,97420.63
2023-02-19T02:14:33.488Z,97418.94
2023-02-19T02:17:05.587Z,97432.09
2023-02-19T02:19:55.193Z,97427.41
2023-02-19T02:22:32.556Z,97400.41
2023-02-19T02:25:04.823Z,97423.00
2023-02-19T02:27:42.833Z,97425.59
2023-02-19T02:30:37.120Z,97414.75
2023-02-19T02:33:31.860Z,97408.31
2023-02-19T02:36:03.385Z,97403.91
2023-02-19T02:38:33.212Z,97388.94
2023-02-19T02:41:00.218Z,97395.84
2023-02-19T02:43:26.649Z,97388.94
2023-02-19T02:45:53.406Z,97398.16
2023-02-19T02:48:35.149Z,97379.41
2023-02-19T02:51:28.605Z,97381.56
2023-02-19T02:54:38.694Z,97386.56
2023-02-19T02:57:09.213Z,97388.31
2023-02-19T02:59:39.414Z,97396.34
2023-02-19T03:02:18.558Z,97376.22
2023-02-19T03:05:26.801Z,97398.94
2023-02-19T03:07:59.438Z,97393.47
2023-02-19T03:10:36.383Z,97395.66
2023-02-19T03:13:25.909Z,97393.19
2023-02-19T03:16:21.317Z,97403.28
2023-02-19T03:19:10.585Z,97391.22
2023-02-19T03:21:39.783Z,97389.19
2023-02-19T03:24:28.273Z,97388.84
2023-02-19T03:26:56.598Z,97388.84
2023-02-19T03:29:26.327Z,97393.09
2023-02-19T03:31:57.438Z,97406.66
2023-02-19T03:34:29.427Z,97396.19
2023-02-19T03:37:04.061Z,97397.88
2023-02-19T03:39:30.607Z,97398.59
2023-02-19T03:42:19.347Z,97404.44
2023-02-19T03:44:57.166Z,97399.69
2023-02-19T03:47:28.839Z,97399.53
2023-02-19T03:50:24.313Z,97414.03
2023-02-19T03:53:06.444Z,97398.97
2023-02-19T03:55:43.757Z,97417.09
2023-02-19T03:58:23.296Z,97402.81
2023-02-19T04:01:03.130Z,97385.56
2023-02-19T04:03:46.964Z,97384.59
2023-02-19T04:06:18.325Z,97394.94
2023-02-19T04:08:48.674Z,97382.31
2023-02-19T04:11:17.073Z,97380.50
2023-02-19T04:13:48.382Z,97373.59
2023-02-19T04:16:24.409Z,97364.56
2023-02-19T04:18:55.229Z,97369.63
2023-02-19T04:21:23.573Z,97363.47
2023-02-19T04:23:50.283Z,97382.03
2023-02-19T04:26:18.052Z,97368.81
2023-02-19T04:28:44.522Z,97355.78
2023-02-19T04:31:11.652Z,97383.38
2023-02-19T04:33:38.366Z,97384.94
2023-02-19T04:36:05.149Z,97409.75
2023-02-19T04:38:31.516Z,97410.56
2023-02-19T04:40:57.901Z,97416.19
2023-02-19T04:43:24.280Z,97419.28
2023-02-19T04:45:50.663Z,97412.06
2023-02-19T04:48:17.021Z,97419.28
2023-02-19T04:50:43.374Z,97429.28
2023-02-19T04:53:09.742Z,97427.41
2023-02-19T04:55:38.358Z,97409.16
2023-02-19T04:58:04.918Z,97429.28
2023-02-19T05:00:31.735Z,97437.81
2023-02-19T05:02:58.090Z,97436.53
2023-02-19T05:05:24.452Z,97436.00
2023-02-19T05:07:50.841Z,97430.81
2023-02-19T05:10:17.350Z,97444.47
2023-02-19T05:12:43.710Z,97444.63
2023-02-19T05:15:10.065Z,97450.69
2023-02-19T05:17:36.509Z,97446.88
2023-02-19T05:20:02.872Z,97459.50
2023-02-19T05:22:30.061Z,97463.56
2023-02-19T05:24:56.560Z,97465.72
2023-02-19T05:27:22.930Z,97469.81
2023-02-19T05:29:49.275Z,97469.25
2023-02-19T05:32:15.692Z,97453.81
2023-02-19T05:34:42.064Z,97468.53
2023-02-19T05:37:08.408Z,97467.75
2023-02-19T05:39:34.829Z,97467.75
2023-02-19T05:42:01.183Z,97474.13
2023-02-19T05:44:27.641Z,97475.69
2023-02-19T05:46:54.003Z,97482.94
2023-02-19T05:49:20.352Z,97483.22
2023-02-19T05:51:49.851Z,97480.63
2023-02-19T05:54:16.179Z,97472.38
2023-02-19T05:56:42.611Z,97468.03
2023-02-19T05:59:20.912Z,97482.69
2023-02-19T06:01:48.582Z,97468.66
2023-02-19T06:04:15.774Z,97497.72
2023-02-19T06:06:42.264Z,97490.50
2023-02-19T06:09:09.302Z,97483.78
2023-02-19T06:11:36.149Z,97492.34
2023-02-19T06:14:02.634Z,97501.16
2023-02-19T06:16:29.311Z,97509.94
2023-02-19T06:18:55.725Z,97514.28
2023-02-19T06:21:22.151Z,97511.97
2023-02-19T06:23:48.501Z,97521.97
2023-02-19T06:26:20.488Z,97519.63
2023-02-19T06:28:49.138Z,97534.19
2023-02-19T06:31:16.116Z,97523.84
2023-02-19T06:33:43.105Z,97528.25
2023-02-19T06:36:15.258Z,97543.00
2023-02-19T06:38:42.132Z,97538.44
2023-02-19T06:41:10.099Z,97550.22
2023-02-19T06:43:36.673Z,97541.56
2023-02-19T06:46:05.138Z,97558.53
2023-02-19T06:48:32.833Z,97564.75
2023-02-19T06:50:59.503Z,97576.41
2023-02-19T06:53:25.898Z,97563.47
2023-02-19T06:56:03.003Z,97571.53
2023-02-19T06:58:29.734Z,97585.16
2023-02-19T07:00:56.471Z,97584.66
2023-02-19T07:03:23.045Z,97600.63
2023-02-19T07:05:49.787Z,97604.28
2023-02-19T07:08:17.315Z,97598.81
2023-02-19T07:10:45.459Z,97603.94
2023-02-19T07:13:12.011Z,97603.16
2023-02-19T07:15:38.629Z,97609.72
2023-02-19T07:18:07.078Z,97621.31
2023-02-19T07:20:33.436Z,97615.28
2023-02-19T07:22:59.791Z,97618.94
2023-02-19T07:25:26.156Z,97607.38
2023-02-19T07:27:52.510Z,97618.88
2023-02-19T07:30:19.041Z,97617.31
2023-02-19T07:32:45.554Z,97631.28
2023-02-19T07:35:12.029Z,97625.81
2023-02-19T07:37:38.445Z,97634.13
2023-02-19T07:40:05.310Z,97636.94
2023-02-19T07:42:31.686Z,97635.91
2023-02-19T07:45:00.568Z,97654.63
2023-02-19T07:47:27.081Z,97642.91
2023-02-19T07:49:53.437Z,97629.81
2023-02-19T07:52:19.781Z,97652.81
2023-02-19T07:54:46.130Z,97644.50
2023-02-19T07:57:12.504Z,97643.00
2023-02-19T07:59:38.860Z,97644.09
2023-02-19T08:02:28.553Z,97652.91
2023-02-19T08:04:54.885Z,97650.16
2023-02-19T08:07:21.228Z,97663.56
2023-02-19T08:10:07.543Z,97651.72
2023-02-19T08:12:52.367Z,97664.81
2023-02-19T08:15:19.782Z,97661.25
2023-02-19T08:17:47.311Z,97677.75
2023-02-19T08:20:13.778Z,97673.59
2023-02-19T08:22:40.138Z,97681.59
2023-02-19T08:25:06.812Z,97684.69
2023-02-19T08:27:33.180Z,97693.44
2023-02-19T08:29:59.549Z,97695.25
2023-02-19T08:32:25.926Z,97710.22
2023-02-19T08:34:52.278Z,97713.09
2023-02-19T08:37:18.628Z,97723.16
2023-02-19T08:39:44.973Z,97713.56
2023-02-19T08:42:11.318Z,97726.53
2023-02-19T08:44:37.665Z,97725.63
2023-02-19T08:47:04.898Z,97731.06
2023-02-19T08:49:31.248Z,97723.63
2023-02-19T08:51:57.583Z,97725.69
2023-02-19T08:54:23.937Z,97741.91
2023-02-19T08:56:50.285Z,97747.44
2023-02-19T08:59:16.982Z,97742.78
2023-02-19T09:01:43.358Z,97750.50
2023-02-19T09:04:12.998Z,97749.03
2023-02-19T09:06:40.139Z,97744.09
2023-02-19T09:09:06.651Z,97758.22
2023-02-19T09:11:32.998Z,97749.03
2023-02-19T09:13:59.347Z,97764.97
2023-02-19T09:16:25.859Z,97771.88
2023-02-19T09:18:52.218Z,97764.53
2023-02-19T09:21:18.553Z,97780.84
2023-02-19T09:23:44.906Z,97767.44
2023-02-19T09:26:11.424Z,97760.88
2023-02-19T09:28:41.428Z,97768.91
2023-02-19T09:31:11.409Z,97762.41
2023-02-19T09:33:38.514Z,97763.94
2023-02-19T09:36:05.170Z,97759.56
2023-02-19T09:38:31.602Z,97756.22
2023-02-19T09:40:59.067Z,97760.81
2023-02-19T09:43:28.792Z,97755.78
2023-02-19T09:46:03.381Z,97773.38
2023-02-19T09:48:30.560Z,97759.59
2023-02-19T09:50:58.497Z,97795.50
2023-02-19T09:53:29.688Z,97783.94
2023-02-19T09:55:56.639Z,97774.22
2023-02-19T09:58:30.753Z,97781.34
2023-02-19T10:01:00.878Z,97797.63
2023-02-19T10:03:39.110Z,97795.56
2023-02-19T10:06:14.080Z,97815.53
2023-02-19T10:08:41.988Z,97810.69
2023-02-19T10:11:13.148Z,97813.53
2023-02-19T10:13:45.547Z,97810.91
2023-02-19T10:16:17.518Z,97801.34
2023-02-19T10:18:45.681Z,97811.38
2023-02-19T10:21:22.406Z,97821.84
2023-02-19T10:23:53.786Z,97819.63
2023-02-19T10:26:20.308Z,97828.56
2023-02-19T10:28:46.672Z,97830.41
2023-02-19T10:31:20.695Z,97817.78
2023-02-19T10:33:52.500Z,97826.91
2023-02-19T10:36:26.659Z,97834.00
2023-02-19T10:38:54.355Z,97842.13
2023-02-19T10:41:24.833Z,97863.00
2023-02-19T10:44:11.394Z,97849.50
2023-02-19T10:46:44.018Z,97856.94
2023-02-19T10:49:28.051Z,97860.09
2023-02-19T10:51:57.760Z,97846.03
2023-02-19T10:54:35.340Z,97854.56
2023-02-19T10:57:19.672Z,97865.19
2023-02-19T10:59:59.068Z,97851.69
2023-02-19T11:02:26.231Z,97860.94
2023-02-19T11:05:17.031Z,97872.75
2023-02-19T11:07:55.842Z,97868.22
2023-02-19T11:10:30.136Z,97870.44
2023-02-19T11:13:00.594Z,97867.97
2023-02-19T11:15:29.965Z,97868.75
2023-02-19T11:17:59.958Z,97869.03
2023-02-19T11:20:28.443Z,97879.38
2023-02-19T11:23:01.496Z,97870.31
2023-02-19T11:25:28.240Z,97882.25
2023-02-19T11:28:07.162Z,97872.91
2023-02-19T11:30:36.563Z,97868.81
2023-02-19T11:33:24.371Z,97878.50
2023-02-19T11:35:55.391Z,97860.09
2023-02-19T11:38:21.824Z,97866.59
2023-02-19T11:41:09.502Z,97881.84
2023-02-19T11:43:53.416Z,97892.81
2023-02-19T11:46:19.709Z,97893.06
2023-02-19T11:48:54.929Z,97888.28
2023-02-19T11:51:34.408Z,97892.19
2023-02-19T11:54:07.111Z,97895.81
2023-02-19T11:56:37.120Z,97894.19
2023-02-19T11:59:05.202Z,97895.56
2023-02-19T12:01:50.300Z,97914.69
2023-02-19T12:04:56.547Z,97908.16
2023-02-19T12:07:50.800Z,97907.06
2023-02-19T12:10:35.995Z,97907.59
2023-02-19T12:13:30.210Z,97909.59
2023-02-19T12:16:14.879Z,97894.28
2023-02-19T12:18:46.915Z,97894.22
2023-02-19T12:21:25.667Z,97887.00
2023-02-19T12:24:23.967Z,97886.94
2023-02-19T12:27:33.633Z,97877.56
2023-02-19T12:30:15.069Z,97891.97
2023-02-19T12:32:57.058Z,97874.56
2023-02-19T12:35:37.958Z,97893.41
2023-02-19T12:38:27.560Z,97890.22
2023-02-19T12:41:17.800Z,97873.94
2023-02-19T12:43:56.593Z,97877.38
2023-02-19T12:46:31.737Z,97872.84
2023-02-19T12:49:14.084Z,97872.09
2023-02-19T12:51:48.694Z,97872.69
2023-02-19T12:54:23.827Z,97867.50
2023-02-19T12:57:18.303Z,97869.72
2023-02-19T13:00:07.391Z,97871.44
2023-02-19T13:02:48.343Z,97856.75
2023-02-19T13:05:52.384Z,97871.47
2023-02-19T13:08:21.698Z,97873.72
2023-02-19T13:10:56.392Z,97865.50
2023-02-19T13:13:30.637Z,97859.91
2023-02-19T13:16:05.836Z,97864.56
2023-02-19T13:18:40.928Z,97869.25
2023-02-19T13:21:08.755Z,97873.66
2023-02-19T13:23:58.151Z,97874.88
2023-02-19T13:26:54.315Z,97884.16
2023-02-19T13:29:35.649Z,97881.13
2023-02-19T13:32:21.081Z,97871.06
2023-02-19T13:35:27.561Z,97897.13
2023-02-19T13:37:55.825Z,97892.44
2023-02-19T13:40:33.145Z,97888.09
2023-02-19T13:43:05.756Z,97889.34
2023-02-19T13:45:44.627Z,97890.19
2023-02-19T13:48:32.550Z,97904.97
2023-02-19T13:51:23.498Z,97924.28
2023-02-19T13:53:58.481Z,97906.66
2023-02-19T13:56:34.074Z,97936.84
2023-02-19T13:59:36.247Z,97927.19
2023-02-19T14:02:02.601Z,97940.97
2023-02-19T14:04:31.649Z,97931.69
2023-02-19T14:07:04.134Z,97940.31
2023-02-19T14:09:36.844Z,97933.84
2023-02-19T14:12:06.175Z,97935.72
2023-02-19T14:14:37.609Z,97915.56
2023-02-19T14:17:09.808Z,97935.53
2023-02-19T14:19:42.336Z,97930.16
2023-02-19T14:22:45.818Z,97939.53
2023-02-19T14:25:26.868Z,97934.34
2023-02-19T14:27:57.419Z,97923.25
2023-02-19T14:30:24.447Z,97920.63
2023-02-19T14:33:02.746Z,97927.84
2023-02-19T14:35:40.425Z,97917.25
2023-02-19T14:38:14.227Z,97920.81
2023-02-19T14:40:42.070Z,97922.13
2023-02-19T14:43:14.390Z,97942.03
2023-02-19T14:45:44.994Z,97941.22
2023-02-19T14:48:19.523Z,97932.72
2023-02-19T14:50:50.502Z,97933.97
2023-02-19T14:53:19.063Z,97941.50
2023-02-19T14:55:46.441Z,97944.59
2023-02-19T14:58:22.083Z,97933.72
2023-02-19T15:00:48.553Z,97933.72
2023-02-19T15:03:33.815Z,97931.38
2023-02-19T15:06:14.387Z,97949.41
2023-02-19T15:08:45.380Z,97943.22
2023-02-19T15:11:19.069Z,97940.34
2023-02-19T15:13:50.844Z,97947.38
2023-02-19T15:16:24.685Z,97950.78
2023-02-19T15:18:53.345Z,97951.81
2023-02-19T15:21:29.164Z,97959.56
2023-02-19T15:24:01.422Z,97971.22
2023-02-19T15:26:42.923Z,97963.47
2023-02-19T15:29:21.003Z,97972.31
2023-02-19T15:31:56.236Z,97982.66
2023-02-19T15:34:31.658Z,97974.66
2023-02-19T15:37:07.487Z,97966.16
2023-02-19T15:39:44.682Z,97988.91
2023-02-19T15:42:18.416Z,97974.91
2023-02-19T15:45:00.744Z,97966.66
2023-02-19T15:47:57.620Z,97977.50
2023-02-19T15:50:29.969Z,97961.25
2023-02-19T15:53:03.626Z,97970.81
2023-02-19T15:55:33.589Z,97972.91
2023-02-19T15:58:08.472Z,97972.72
2023-02-19T16:00:38.324Z,97969.09
2023-02-19T16:03:05.553Z,97948.69
2023-02-19T16:05:39.142Z,97948.16
2023-02-19T16:08:12.464Z,97954.88
2023-02-19T16:10:39.431Z,97955.41
2023-02-19T16:13:09.389Z,97961.63
2023-02-19T16:15:36.096Z,97946.38
2023-02-19T16:18:02.557Z,97932.97
2023-02-19T16:20:34.710Z,97942.28
2023-02-19T16:23:15.227Z,97949.25
2023-02-19T16:25:44.408Z,97949.53
2023-02-19T16:28:17.977Z,97943.56
2023-02-19T16:30:44.470Z,97943.31
2023-02-19T16:33:36.406Z,97944.91
2023-02-19T16:36:28.764Z,97958.09
2023-02-19T16:39:07.095Z,97955.78
2023-02-19T16:41:34.463Z,97943.63
2023-02-19T16:44:06.526Z,97959.13
2023-02-19T16:46:33.171Z,97968.47
2023-02-19T16:48:59.605Z,97968.72
2023-02-19T16:51:27.754Z,97967.16
2023-02-19T16:53:54.193Z,97959.13
2023-02-19T16:56:22.960Z,97956.31
2023-02-19T16:58:50.166Z,97973.13
2023-02-19T17:01:17.347Z,97974.13
2023-02-19T17:03:46.917Z,97970.28
2023-02-19T17:06:13.600Z,97987.34
2023-02-19T17:08:44.406Z,97983.19
2023-02-19T17:11:13.796Z,97987.06
2023-02-19T17:13:41.630Z,97990.69
2023-02-19T17:16:13.371Z,97992.75
2023-02-19T17:18:39.728Z,98008.25
2023-02-19T17:21:15.315Z,98023.25
2023-02-19T17:23:41.784Z,98025.56
2023-02-19T17:26:14.332Z,98024.81
2023-02-19T17:28:41.545Z,98028.94
2023-02-19T17:31:10.309Z,98027.41
2023-02-19T17:33:37.896Z,98034.66
2023-02-19T17:36:04.693Z,98037.75
2023-02-19T17:38:31.032Z,98036.47
2023-02-19T17:40:57.447Z,98036.19
2023-02-19T17:43:25.516Z,98032.81
2023-02-19T17:45:52.010Z,98032.53
2023-02-19T17:48:18.369Z,98025.56
2023-02-19T17:50:44.749Z,98046.25
2023-02-19T17:53:11.154Z,98044.66
2023-02-19T17:55:37.516Z,98049.81
2023-02-19T17:58:03.935Z,98070.75
2023-02-19T18:00:32.150Z,98069.22
2023-02-19T18:02:58.748Z,98073.34
2023-02-19T18:05:25.110Z,98067.91
2023-02-19T18:07:51.462Z,98087.28
2023-02-19T18:10:20.120Z,98095.31
2023-02-19T18:12:46.892Z,98075.38
2023-02-19T18:15:22.551Z,98079.53
2023-02-19T18:17:49.329Z,98092.44
2023-02-19T18:20:17.867Z,98100.72
2023-02-19T18:22:44.256Z,98088.78
2023-02-19T18:25:11.243Z,98083.16
2023-02-19T18:27:37.791Z,98092.75
2023-02-19T18:30:05.653Z,98083.94
2023-02-19T18:32:32.088Z,98095.03
2023-02-19T18:35:00.149Z,98086.28
2023-02-19T18:37:27.997Z,98087.81
2023-02-19T18:39:54.393Z,98094.53
2023-02-19T18:42:21.912Z,98081.34
2023-02-19T18:44:49.223Z,98097.41
2023-02-19T18:47:17.369Z,98101.53
2023-02-19T18:49:51.491Z,98088.09
2023-02-19T18:52:22.068Z,98105.69
2023-02-19T18:54:49.309Z,98091.44
2023-02-19T18:57:15.951Z,98109.28
2023-02-19T18:59:43.237Z,98095.84
2023-02-19T19:02:10.469Z,98089.09
2023-02-19T19:04:38.236Z,98095.84
2023-02-19T19:07:05.937Z,98079.03
2023-02-19T19:09:33.134Z,98088.34
2023-02-19T19:11:59.859Z,98074.38
2023-02-19T19:14:26.218Z,98069.47
2023-02-19T19:16:52.596Z,98087.28
2023-02-19T19:19:19.680Z,98076.19
2023-02-19T19:21:53.551Z,98092.47
2023-02-19T19:24:22.140Z,98086.78
2023-02-19T19:26:50.441Z,98103.59
2023-02-19T19:29:19.628Z,98097.34
2023-02-19T19:31:46.193Z,98091.44
2023-02-19T19:34:13.359Z,98096.34
2023-02-19T19:36:39.739Z,98101.25
2023-02-19T19:39:06.692Z,98103.06
2023-02-19T19:41:33.040Z,98093.47
2023-02-19T19:44:05.393Z,98079.28
2023-02-19T19:46:32.351Z,98077.72
2023-02-19T19:48:58.830Z,98083.66
2023-02-19T19:51:31.839Z,98081.34
2023-02-19T19:53:58.362Z,98104.88
2023-02-19T19:56:24.871Z,98099.19
2023-02-19T19:58:51.231Z,98094.00
2023-02-19T20:01:21.060Z,98106.41
2023-02-19T20:03:48.008Z,98100.47
2023-02-19T20:06:14.379Z,98120.88
2023-02-19T20:08:41.021Z,98111.06
2023-02-19T20:11:07.393Z,98114.66
2023-02-19T20:13:34.422Z,98114.91
2023-02-19T20:16:00.871Z,98110.50
2023-02-19T20:18:27.439Z,98109.25
2023-02-19T20:20:53.812Z,98124.03
2023-02-19T20:23:20.178Z,98119.38
2023-02-19T20:25:46.539Z,98107.19
2023-02-19T20:28:12.893Z,98118.09
2023-02-19T20:30:39.291Z,98119.31
2023-02-19T20:33:05.665Z,98128.13
2023-02-19T20:35:32.359Z,98132.78
2023-02-19T20:37:58.761Z,98128.09
2023-02-19T20:40:27.573Z,98158.06
2023-02-19T20:42:54.323Z,98158.34
2023-02-19T20:45:21.329Z,98149.59
2023-02-19T20:47:47.979Z,98120.59
2023-02-19T20:50:18.476Z,98131.72
2023-02-19T20:52:45.934Z,98127.59
2023-02-19T20:55:12.596Z,98125.75
2023-02-19T20:57:39.125Z,98131.75
2023-02-19T21:00:06.371Z,98131.47
2023-02-19T21:02:32.765Z,98135.06
2023-02-19T21:04:59.741Z,98139.47
2023-02-19T21:07:26.677Z,98146.41
2023-02-19T21:09:53.719Z,98142.53
2023-02-19T21:12:22.110Z,98145.06
2023-02-19T21:14:48.533Z,98165.00
2023-02-19T21:17:15.199Z,98165.78
2023-02-19T21:19:41.696Z,98159.31
2023-02-19T21:22:08.139Z,98159.84
2023-02-19T21:24:34.522Z,98154.63
2023-02-19T21:27:01.106Z,98168.34
2023-02-19T21:29:27.593Z,98166.00
2023-02-19T21:31:56.159Z,98176.38
2023-02-19T21:34:27.945Z,98171.41
2023-02-19T21:36:55.523Z,98168.84
2023-02-19T21:39:24.175Z,98188.03
2023-02-19T21:41:50.771Z,98179.97
2023-02-19T21:44:17.594Z,98189.81
2023-02-19T21:46:44.265Z,98174.81
2023-02-19T21:49:11.684Z,98181.84
2023-02-19T21:51:40.438Z,98170.13
2023-02-19T21:54:09.050Z,98160.88
2023-02-19T21:56:36.654Z,98175.06
2023-02-19T21:59:03.553Z,98165.72
2023-02-19T22:01:33.278Z,98176.88
2023-02-19T22:04:00.431Z,98165.25
2023-02-19T22:06:30.625Z,98178.44
2023-02-19T22:08:58.116Z,98189.25
2023-02-19T22:11:25.142Z,98195.19
2023-02-19T22:13:51.754Z,98191.59
2023-02-19T22:16:18.359Z,98193.94
2023-02-19T22:18:56.624Z,98199.09
2023-02-19T22:21:25.611Z,98192.34
2023-02-19T22:23:53.817Z,98208.66
2023-02-19T22:26:25.584Z,98196.72
2023-02-19T22:28:52.431Z,98214.84
2023-02-19T22:31:21.445Z,98201.41
2023-02-19T22:33:47.818Z,98203.72
2023-02-19T22:36:23.064Z,98213.56
2023-02-19T22:38:50.009Z,98200.16
2023-02-19T22:41:17.740Z,98201.91
2023-02-19T22:43:44.410Z,98190.00
2023-02-19T22:46:13.866Z,98207.38
2023-02-19T22:48:40.474Z,98193.34
2023-02-19T22:51:15.025Z,98200.34
2023-02-19T22:53:45.985Z,98198.53
2023-02-19T22:56:13.966Z,98213.72
2023-02-19T22:58:41.195Z,98209.09
2023-02-19T23:01:08.708Z,98203.09
2023-02-19T23:03:35.142Z,98195.56
2023-02-19T23:06:04.823Z,98196.16
2023-02-19T23:08:31.189Z,98181.81
2023-02-19T23:10:57.553Z,98184.38
2023-02-19T23:13:23.918Z,98198.25
2023-02-19T23:15:50.282Z,98192.50
2023-02-19T23:18:16.644Z,98199.94
2023-02-19T23:20:43.049Z,98208.16
2023-02-19T23:23:09.408Z,98205.72
2023-02-19T23:25:35.821Z,98202.25
2023-02-19T23:28:02.193Z,98222.94
2023-02-19T23:30:28.636Z,98221.06
2023-02-19T23:32:55.052Z,98215.88
2023-02-19T23:35:21.396Z,98212.94
2023-02-19T23:37:47.762Z,98224.78
2023-02-19T23:40:14.333Z,98216.91
2023-02-19T23:42:40.699Z,98204.59
2023-02-19T23:45:07.398Z,98212.38
2023-02-19T23:47:33.761Z,98208.81
2023-02-19T23:50:00.153Z,98201.63
2023-02-19T23:52:26.581Z,98201.50
2023-02-19T23:54:52.918Z,98190.88
2023-02-19T23:57:19.295Z,98194.97
2023-02-19T23:59:47.172Z,98201.19
